Time;durP1;ratioP1;P1;durP2;ratioP2;P2;SDS_P1;SDS_P2;PMS_P1;PMS_P2;Temp;Humidity;BMP_temperature;BMP_pressure;BME280_temperature;BME280_humidity;BME280_pressure;Samples;Min_cycle;Max_cycle;Signal;HPM_P1;HPM_P2
2022/04/12 00:01:40;;;;;;;11.45;7.30;;;7.10;64.30;;;5.66;62.87;95897.56;4870632;28;20438;-64
2022/04/12 00:04:06;;;;;;;13.82;7.72;;;7.10;64.50;;;5.64;63.35;95891.66;4905654;28;20483;-65
2022/04/12 00:06:36;;;;;;;11.48;7.47;;;7.00;64.20;;;5.62;63.46;95900.63;4883679;28;20447;-67
2022/04/12 00:09:02;;;;;;;11.43;7.32;;;7.00;63.90;;;5.62;63.83;95900.63;4886210;28;20490;-65
2022/04/12 00:11:28;;;;;;;10.35;7.70;;;7.10;63.70;;;5.62;63.35;95895.41;4903445;28;20682;-65
2022/04/12 00:13:54;;;;;;;11.02;7.70;;;7.10;63.90;;;5.62;63.46;95900.63;4881653;28;20274;-65
2022/04/12 00:16:20;;;;;;;11.18;7.63;;;7.10;63.80;;;5.59;64.00;95900.94;4859108;28;20300;-65
2022/04/12 00:19:04;;;;;;;13.68;7.88;;;7.00;64.10;;;5.56;63.30;95901.28;4868480;28;20473;-65
2022/04/12 00:21:34;;;;;;;14.48;7.88;;;7.00;64.00;;;5.54;63.50;95904.06;4876539;28;20384;-65
2022/04/12 00:24:04;;;;;;;9.93;7.18;;;7.00;63.90;;;5.53;64.60;95898.03;4903408;28;20466;-66
2022/04/12 00:26:30;;;;;;;11.10;8.00;;;7.00;63.70;;;5.51;64.14;95899.16;4883924;28;20561;-65
2022/04/12 00:28:56;;;;;;;10.70;7.82;;;7.00;63.80;;;5.50;63.94;95897.53;4900636;28;20343;-66
2022/04/12 00:31:23;;;;;;;13.30;8.10;;;7.00;63.60;;;5.50;62.91;95897.53;4906264;28;20621;-64
2022/04/12 00:33:49;;;;;;;11.70;7.63;;;7.00;63.20;;;5.50;63.92;95893.13;4898538;28;20299;-65
2022/04/12 00:36:15;;;;;;;10.07;7.72;;;7.00;63.20;;;5.51;63.50;95884.34;4894171;28;20352;-65
2022/04/12 00:38:41;;;;;;;11.73;7.72;;;7.00;63.20;;;5.54;63.87;95885.78;4867423;28;20451;-65
2022/04/12 00:41:08;;;;;;;10.38;7.25;;;7.10;63.10;;;5.56;62.93;95880.41;4892042;28;20554;-65
2022/04/12 00:43:38;;;;;;;9.98;6.53;;;7.10;62.60;;;5.59;63.83;95890.50;4903441;28;20375;-66
2022/04/12 00:46:04;;;;;;;9.63;7.20;;;7.10;62.40;;;5.62;63.72;95884.97;4886243;28;20517;-65
2022/04/12 00:48:31;;;;;;;11.80;7.78;;;7.20;62.50;;;5.65;63.68;95887.25;4868537;28;20824;-64
2022/04/12 00:50:58;;;;;;;10.70;7.32;;;7.20;62.70;;;5.65;62.83;95882.84;4933485;22;20346;-66
2022/04/12 00:53:24;;;;;;;13.30;7.75;;;7.20;62.60;;;5.65;62.82;95880.22;4905601;28;20493;-66
2022/04/12 00:55:50;;;;;;;10.50;7.40;;;7.20;62.60;;;5.66;63.50;95886.25;4872951;28;20207;-66
2022/04/12 00:58:17;;;;;;;9.88;6.88;;;7.20;62.50;;;5.69;63.01;95880.75;4873208;28;20572;-66
2022/04/12 01:00:43;;;;;;;11.98;7.40;;;7.30;62.10;;;5.69;63.79;95880.75;4890634;28;20844;-66
2022/04/12 01:03:09;;;;;;;9.98;7.68;;;7.30;62.30;;;5.70;63.71;95882.38;4899269;28;20458;-66
2022/04/12 01:05:36;;;;;;;11.63;7.45;;;7.30;62.00;;;5.70;62.90;95879.75;4940134;28;20351;-66
2022/04/12 01:08:02;;;;;;;10.18;7.95;;;7.30;62.20;;;5.71;62.84;95877.00;4890804;28;20412;-66
2022/04/12 01:10:29;;;;;;;11.25;6.85;;;7.30;62.40;;;5.71;63.05;95879.59;4921197;28;20434;-66
2022/04/12 01:12:55;;;;;;;10.88;7.30;;;7.30;62.50;;;5.72;63.15;95880.41;4920331;28;20579;-67
2022/04/12 01:15:23;;;;;;;10.23;7.43;;;7.30;62.30;;;5.69;62.92;95871.13;4912473;28;20486;-67
2022/04/12 01:17:50;;;;;;;10.65;7.15;;;7.20;62.10;;;5.67;62.71;95869.66;4896625;28;20502;-67
2022/04/12 01:20:24;;;;;;;11.18;7.28;;;7.20;61.80;;;5.66;63.29;95854.97;4882866;28;20220;-67
2022/04/12 01:23:17;;;;;;;13.02;8.10;;;7.20;61.90;;;5.61;64.04;95849.41;4884457;28;20399;-67
2022/04/12 01:25:43;;;;;;;11.68;7.30;;;7.20;62.10;;;5.66;63.34;95854.97;4885468;28;20479;-67
2022/04/12 01:28:10;;;;;;;10.05;7.25;;;7.20;62.50;;;5.65;63.54;95864.56;4927078;28;20450;-67
2022/04/12 01:30:36;;;;;;;9.90;7.15;;;7.20;62.50;;;5.65;63.89;95861.97;4881834;28;20403;-67
2022/04/12 01:33:04;;;;;;;11.88;7.88;;;7.20;62.60;;;5.62;63.98;95864.91;4891636;28;20318;-67
2022/04/12 01:35:30;;;;;;;8.25;6.70;;;7.10;62.50;;;5.53;63.09;95858.88;4861503;28;20214;-67
2022/04/12 01:37:56;;;;;;;9.70;7.10;;;7.00;63.00;;;5.50;64.26;95855.81;4883960;28;20326;-67
2022/04/12 01:40:26;;;;;;;11.85;7.40;;;6.90;63.40;;;5.45;63.73;95853.69;4904528;28;20691;-67
2022/04/12 01:42:53;;;;;;;11.57;7.93;;;6.90;63.80;;;5.41;64.21;95851.53;4904479;28;20337;-67
2022/04/12 01:45:20;;;;;;;11.73;7.30;;;6.80;64.00;;;5.37;64.56;95852.84;4880403;28;20419;-66
2022/04/12 01:47:46;;;;;;;12.80;8.15;;;6.80;63.70;;;5.32;64.63;95847.31;4886599;28;20339;-67
2022/04/12 01:50:12;;;;;;;12.27;7.55;;;6.70;64.00;;;5.29;64.08;95858.88;4898673;28;20363;-67
2022/04/12 01:52:38;;;;;;;12.82;7.85;;;6.80;64.00;;;5.27;64.42;95860.03;4875552;28;20681;-67
2022/04/12 01:55:05;;;;;;;12.73;7.82;;;6.80;64.00;;;5.27;64.33;95870.47;4874365;28;20555;-67
2022/04/12 01:57:31;;;;;;;13.88;8.10;;;6.70;64.30;;;5.23;64.28;95864.75;4895279;28;20308;-67
2022/04/12 01:59:58;;;;;;;10.50;8.02;;;6.70;64.40;;;5.22;65.20;95857.91;4892488;28;20341;-67
2022/04/12 02:02:24;;;;;;;11.00;8.13;;;6.70;64.30;;;5.19;64.83;95859.03;4883451;28;20501;-68
2022/04/12 02:04:50;;;;;;;10.43;7.78;;;6.70;63.90;;;5.20;64.89;95859.84;4919721;28;20803;-68
2022/04/12 02:07:16;;;;;;;15.23;8.13;;;6.80;64.00;;;5.19;65.27;95869.44;4868545;28;20442;-67
2022/04/12 02:09:42;;;;;;;13.15;8.73;;;6.70;64.00;;;5.21;64.48;95864.09;4887798;28;20422;-67
2022/04/12 02:12:10;;;;;;;11.68;7.75;;;6.80;64.10;;;5.20;65.08;95870.28;4914784;28;20449;-67
2022/04/12 02:14:36;;;;;;;12.52;8.82;;;6.70;64.10;;;5.15;64.72;95867.34;4898031;28;20564;-67
2022/04/12 02:17:03;;;;;;;12.50;7.88;;;6.60;64.70;;;5.11;64.94;95871.25;4892373;28;20782;-67
2022/04/12 02:19:29;;;;;;;12.80;8.43;;;6.60;64.90;;;5.06;65.36;95868.31;4888068;28;20367;-67
2022/04/12 02:21:55;;;;;;;13.65;8.60;;;6.60;65.30;;;5.01;65.85;95865.38;4914174;28;20301;-67
2022/04/12 02:24:21;;;;;;;13.15;8.80;;;6.50;65.50;;;4.95;65.83;95859.00;4884990;28;20606;-68
2022/04/12 02:26:47;;;;;;;33.72;22.98;;;6.40;65.70;;;4.91;65.89;95866.31;4922598;28;20391;-67
2022/04/12 02:29:13;;;;;;;25.95;18.52;;;6.40;65.80;;;4.86;65.98;95868.59;4881670;28;20419;-66
2022/04/12 02:31:41;;;;;;;24.15;17.65;;;6.30;66.10;;;4.84;65.50;95870.53;4888599;28;20431;-67
2022/04/12 02:34:07;;;;;;;27.33;13.77;;;6.40;65.90;;;4.79;65.55;95856.38;4878220;28;20513;-67
2022/04/12 02:36:33;;;;;;;52.60;33.58;;;6.30;65.90;;;4.75;66.42;95865.44;4871156;28;20281;-67
2022/04/12 02:38:59;;;;;;;38.22;24.13;;;6.20;66.10;;;4.69;65.85;95864.28;4886293;28;20320;-68
2022/04/12 02:41:25;;;;;;;19.60;12.48;;;6.20;66.40;;;4.67;65.87;95857.63;4913534;28;20379;-68
2022/04/12 02:43:51;;;;;;;13.73;9.57;;;6.20;66.00;;;4.65;66.48;95870.00;4894240;28;20381;-67
2022/04/12 02:46:17;;;;;;;12.15;8.82;;;6.10;66.10;;;4.62;66.27;95865.91;4872759;28;20300;-67
2022/04/12 02:48:43;;;;;;;14.50;9.07;;;6.10;66.30;;;4.59;66.77;95867.03;4874258;28;20632;-66
2022/04/12 02:51:10;;;;;;;11.90;8.32;;;6.10;66.20;;;4.58;66.68;95868.03;4906270;28;20386;-66
2022/04/12 02:53:36;;;;;;;13.75;9.23;;;6.10;66.10;;;4.56;66.10;95871.75;4877248;28;20400;-71
2022/04/12 02:56:02;;;;;;;13.63;8.77;;;6.10;65.90;;;4.55;66.58;95865.75;4887143;28;20550;-66
2022/04/12 02:58:28;;;;;;;12.63;8.73;;;6.10;66.00;;;4.56;66.65;95876.97;4859469;28;20312;-69
2022/04/12 03:00:55;;;;;;;14.80;10.18;;;6.10;66.30;;;4.55;67.05;95870.13;4879029;28;20523;-69
2022/04/12 03:03:21;;;;;;;18.08;11.30;;;6.10;67.00;;;4.53;66.89;95877.28;4874917;28;20615;-69
2022/04/12 03:05:47;;;;;;;32.72;22.13;;;6.10;66.90;;;4.48;66.65;95874.31;4872582;28;20580;-69
2022/04/12 03:08:13;;;;;;;105.68;73.78;;;6.00;67.00;;;4.44;67.43;95868.59;4877100;28;20328;-69
2022/04/12 03:10:39;;;;;;;31.85;22.70;;;5.90;67.20;;;4.39;67.20;95875.25;4889172;28;20627;-69
2022/04/12 03:13:05;;;;;;;22.08;15.48;;;5.90;67.60;;;4.35;67.32;95866.94;4896527;28;20699;-69
2022/04/12 03:15:31;;;;;;;13.90;10.27;;;5.90;67.80;;;4.29;67.63;95865.75;4882972;28;20420;-69
2022/04/12 03:17:58;;;;;;;14.38;9.93;;;5.80;67.70;;;4.27;67.81;95870.31;4898657;28;20202;-69
2022/04/12 03:20:24;;;;;;;12.02;9.25;;;5.80;67.60;;;4.24;67.92;95873.22;4873285;28;20895;-69
2022/04/12 03:22:50;;;;;;;12.80;9.10;;;5.80;67.60;;;4.25;67.89;95874.03;4889389;28;20347;-69
2022/04/12 03:25:16;;;;;;;17.52;9.23;;;5.90;67.60;;;4.24;67.64;95870.63;4888471;28;20935;-69
2022/04/12 03:27:42;;;;;;;14.23;8.77;;;5.90;67.40;;;4.23;67.88;95871.59;4894329;28;20404;-69
2022/04/12 03:30:08;;;;;;;14.93;9.35;;;5.90;67.70;;;4.23;68.16;95860.38;4895055;28;20296;-70
2022/04/12 03:32:34;;;;;;;12.70;9.07;;;5.90;67.70;;;4.21;68.06;95855.31;4857044;28;20719;-68
2022/04/12 03:35:00;;;;;;;12.15;9.52;;;5.80;67.90;;;4.21;68.23;95851.91;4883505;28;20502;-70
2022/04/12 03:37:27;;;;;;;18.13;12.48;;;5.80;67.90;;;4.21;68.57;95852.72;4906143;28;20454;-68
2022/04/12 03:39:53;;;;;;;27.67;18.13;;;5.90;68.50;;;4.21;68.79;95851.91;4905461;28;20218;-68
2022/04/12 03:42:19;;;;;;;19.85;13.68;;;5.80;68.80;;;4.20;68.83;95851.09;4900609;28;20792;-68
2022/04/12 03:44:46;;;;;;;19.92;10.15;;;5.80;68.80;;;4.16;68.83;95839.38;4889803;28;20678;-68
2022/04/12 03:47:12;;;;;;;13.88;8.93;;;5.70;68.50;;;4.15;68.63;95848.16;4894094;28;20435;-68
2022/04/12 03:49:38;;;;;;;15.57;9.13;;;5.70;68.60;;;4.13;68.86;95850.09;4938519;28;20331;-70
2022/04/12 03:52:05;;;;;;;12.18;9.52;;;5.70;68.80;;;4.11;69.07;95857.25;4893452;28;20834;-70
2022/04/12 03:54:31;;;;;;;15.48;9.85;;;5.60;68.80;;;4.11;69.09;95857.25;4915918;28;20360;-67
2022/04/12 03:56:57;;;;;;;12.23;8.90;;;5.70;68.90;;;4.11;69.40;95862.44;4952076;28;20060;-68
2022/04/12 03:59:22;;;;;;;13.63;8.90;;;5.70;68.90;;;4.11;69.23;95857.25;4962150;28;20042;-64
2022/04/12 04:01:49;;;;;;;13.18;9.10;;;5.70;68.70;;;4.10;69.56;95855.59;4976621;28;20095;-63
2022/04/12 04:04:16;;;;;;;14.82;10.18;;;5.70;68.60;;;4.10;69.01;95860.81;5010083;28;20119;-63
2022/04/12 04:06:42;;;;;;;11.55;8.57;;;5.80;68.50;;;4.09;69.15;95858.38;4973642;28;20032;-64
2022/04/12 04:09:07;;;;;;;13.13;9.10;;;5.70;68.50;;;4.06;69.16;95863.84;4986269;28;20364;-64
2022/04/12 04:11:33;;;;;;;15.43;10.20;;;5.70;68.40;;;4.04;68.99;95865.78;5002852;28;20405;-64
2022/04/12 04:14:03;;;;;;;12.63;8.73;;;5.70;68.50;;;4.01;69.58;95866.94;5011461;28;20128;-64
2022/04/12 04:16:30;;;;;;;13.32;9.50;;;5.60;68.70;;;3.97;69.58;95860.41;5010166;28;20124;-64
2022/04/12 04:18:55;;;;;;;14.88;9.63;;;5.60;68.90;;;3.96;70.45;95861.38;5012577;28;20037;-64
2022/04/12 04:21:21;;;;;;;15.35;9.35;;;5.60;69.20;;;3.96;69.92;95861.38;4992752;28;20079;-64
2022/04/12 04:23:47;;;;;;;13.00;9.50;;;5.60;69.20;;;3.92;70.20;95852.25;5010785;28;20056;-64
2022/04/12 04:26:13;;;;;;;15.60;9.48;;;5.50;69.00;;;3.90;70.01;95859.41;5010443;28;20116;-64
2022/04/12 04:28:41;;;;;;;11.85;8.85;;;5.50;69.10;;;3.89;69.87;95862.97;5014030;28;20037;-64
2022/04/12 04:31:08;;;;;;;19.02;13.45;;;5.50;69.20;;;3.86;69.93;95853.69;4990299;28;20063;-64
2022/04/12 04:33:33;;;;;;;18.52;12.23;;;5.40;70.00;;;3.86;70.41;95864.09;5015709;28;20037;-64
2022/04/12 04:35:59;;;;;;;17.25;11.80;;;5.40;70.00;;;3.84;70.72;95858.19;4974418;28;20286;-63
2022/04/12 04:38:25;;;;;;;16.65;12.00;;;5.40;70.10;;;3.81;70.56;95855.91;4992703;28;20044;-63
2022/04/12 04:40:51;;;;;;;16.65;12.13;;;5.40;70.10;;;3.84;70.62;95862.59;4985407;28;20797;-64
2022/04/12 04:43:17;;;;;;;15.60;10.77;;;5.50;70.10;;;3.85;70.57;95864.25;5010561;28;20047;-63
2022/04/12 04:45:45;;;;;;;14.85;10.02;;;5.50;69.70;;;3.85;70.27;95877.25;5010094;28;20073;-64
2022/04/12 04:48:11;;;;;;;14.55;9.20;;;5.50;69.50;;;3.83;70.50;95868.75;4975407;28;20050;-64
2022/04/12 04:50:37;;;;;;;12.93;9.75;;;5.60;69.50;;;3.83;70.41;95863.56;4991781;28;20049;-64
2022/04/12 04:53:05;;;;;;;12.73;8.95;;;5.50;69.70;;;3.84;71.14;95870.38;5002021;28;20405;-66
2022/04/12 04:55:32;;;;;;;14.05;9.05;;;5.60;69.90;;;3.87;70.76;95870.94;4989851;28;20142;-65
2022/04/12 04:57:59;;;;;;;12.65;8.75;;;5.60;69.90;;;3.89;70.81;95873.38;5006234;28;20048;-65
2022/04/12 05:00:29;;;;;;;13.05;9.25;;;5.60;69.90;;;3.92;71.05;95870.47;4967482;28;20553;-66
2022/04/12 05:02:54;;;;;;;12.38;8.20;;;5.70;69.90;;;3.92;70.87;95875.66;5010707;28;20037;-66
2022/04/12 05:05:21;;;;;;;15.15;9.15;;;5.60;69.90;;;3.95;70.87;95883.16;5026398;28;20535;-65
2022/04/12 05:07:51;;;;;;;14.63;9.00;;;5.70;69.90;;;3.98;71.17;95888.88;5037186;28;20041;-65
2022/04/12 05:10:18;;;;;;;12.05;8.38;;;5.80;69.70;;;4.03;71.27;95887.59;4986708;28;20044;-66
2022/04/12 05:12:44;;;;;;;12.10;9.07;;;5.90;69.40;;;4.04;71.22;95892.63;5008627;28;20175;-66
2022/04/12 05:15:10;;;;;;;13.38;8.88;;;5.90;69.50;;;4.06;71.03;95890.69;5001011;28;20056;-66
2022/04/12 05:17:36;;;;;;;15.40;8.57;;;5.90;69.30;;;4.11;70.97;95892.88;5009816;28;20063;-66
2022/04/12 05:20:04;;;;;;;12.73;9.00;;;6.10;69.20;;;4.15;71.71;95889.78;5022304;28;20131;-66
2022/04/12 05:22:30;;;;;;;13.30;8.40;;;6.10;69.30;;;4.20;71.27;95895.34;4992265;28;20095;-66
2022/04/12 05:24:56;;;;;;;13.50;8.80;;;6.10;68.70;;;4.26;71.72;95892.13;4984576;28;20033;-66
2022/04/12 05:27:22;;;;;;;13.70;8.50;;;6.20;68.50;;;4.33;71.86;95897.53;5009863;28;20033;-66
2022/04/12 05:29:48;;;;;;;12.40;8.80;;;6.30;68.60;;;4.40;71.11;95887.31;5009811;28;20524;-66
2022/04/12 05:32:13;;;;;;;14.38;8.70;;;6.40;68.50;;;4.47;71.34;95898.72;5013996;28;20074;-66
2022/04/12 05:34:40;;;;;;;13.88;8.40;;;6.60;67.80;;;4.56;71.44;95893.41;4983926;28;20040;-66
2022/04/12 05:37:06;;;;;;;14.20;8.68;;;6.70;67.50;;;4.65;70.92;95896.84;5009709;28;20526;-66
2022/04/12 05:39:31;;;;;;;15.52;9.43;;;6.80;67.20;;;4.77;71.44;95895.59;4992888;28;20052;-66
2022/04/12 05:42:00;;;;;;;13.27;8.55;;;7.00;67.10;;;4.88;71.84;95887.47;4985718;28;20061;-66
2022/04/12 05:44:29;;;;;;;12.05;8.75;;;7.10;66.40;;;4.96;71.53;95878.84;4998406;28;20041;-66
2022/04/12 05:46:55;;;;;;;14.80;8.40;;;7.30;65.80;;;5.14;70.81;95887.38;5009472;28;20034;-66
2022/04/12 05:49:21;;;;;;;13.88;8.25;;;7.50;65.60;;;5.29;70.81;95890.19;5009528;28;20033;-66
2022/04/12 05:51:47;;;;;;;12.95;8.63;;;7.60;65.20;;;5.43;71.09;95892.16;5021449;28;20041;-66
2022/04/12 05:54:13;;;;;;;14.60;8.32;;;7.80;64.00;;;5.52;70.49;95895.56;4964810;28;20029;-66
2022/04/12 05:56:39;;;;;;;12.27;8.00;;;7.90;63.40;;;5.64;70.56;95896.88;4991673;28;20563;-66
2022/04/12 05:59:06;;;;;;;15.27;7.95;;;8.00;63.20;;;5.78;69.45;95898.03;4996721;28;20048;-66
2022/04/12 06:01:32;;;;;;;13.00;8.30;;;8.10;63.20;;;5.91;69.47;95906.22;4997222;28;20084;-66
2022/04/12 06:03:57;;;;;;;16.42;8.25;;;8.30;62.80;;;6.03;69.17;95910.09;4957429;28;20037;-66
2022/04/12 06:06:23;;;;;;;13.38;8.25;;;8.40;61.80;;;6.15;68.81;95900.13;4971694;28;20572;-66
2022/04/12 06:08:49;;;;;;;11.65;7.85;;;8.60;61.40;;;6.29;69.14;95906.47;4996519;28;20347;-66
2022/04/12 06:11:15;;;;;;;13.57;8.38;;;8.70;61.10;;;6.38;68.51;95903.69;4989727;28;20532;-66
2022/04/12 06:13:40;;;;;;;10.57;7.93;;;8.80;60.70;;;6.52;68.13;95899.53;4973307;28;20060;-66
2022/04/12 06:16:06;;;;;;;12.82;8.02;;;8.90;60.70;;;6.63;67.47;95907.03;4972178;28;20143;-66
2022/04/12 06:18:32;;;;;;;11.80;8.40;;;9.00;60.70;;;6.76;67.68;95896.00;5023871;28;20031;-66
2022/04/12 06:20:58;;;;;;;11.75;7.82;;;9.20;60.60;;;6.88;67.61;95902.50;5017115;28;20524;-66
2022/04/12 06:23:24;;;;;;;13.23;7.85;;;9.30;59.60;;;7.03;67.58;95900.00;5017098;28;20026;-66
2022/04/12 06:25:49;;;;;;;11.30;7.40;;;9.50;59.50;;;7.15;67.21;95890.75;5008070;28;20167;-66
2022/04/12 06:28:15;;;;;;;11.52;7.65;;;9.60;59.20;;;7.27;67.00;95892.00;4998376;28;20045;-66
2022/04/12 06:30:41;;;;;;;9.48;6.97;;;9.70;58.70;;;7.38;66.65;95896.81;4984250;28;20123;-66
2022/04/12 06:33:07;;;;;;;10.30;7.43;;;9.80;58.50;;;7.52;66.09;95902.31;5025322;28;20117;-66
2022/04/12 06:35:32;;;;;;;9.98;7.47;;;10.00;58.00;;;7.63;65.86;95894.03;5040836;28;20621;-66
2022/04/12 06:37:58;;;;;;;10.38;7.88;;;10.10;57.90;;;7.73;65.86;95894.63;5015735;28;20040;-66
2022/04/12 06:40:24;;;;;;;9.25;6.90;;;10.10;57.90;;;7.84;65.53;95891.56;4971106;28;20124;-66
2022/04/12 06:42:50;;;;;;;10.75;7.10;;;10.20;57.80;;;7.99;64.97;95895.03;5001324;28;20029;-66
2022/04/12 06:45:16;;;;;;;9.30;6.82;;;10.40;57.20;;;8.13;65.25;95889.97;4985207;28;20025;-66
2022/04/12 06:47:42;;;;;;;9.50;6.57;;;10.50;57.70;;;8.30;65.42;95892.25;4992610;28;20579;-66
2022/04/12 06:50:12;;;;;;;9.73;6.95;;;10.70;57.50;;;8.47;64.73;95889.50;5002313;28;20065;-66
2022/04/12 06:52:37;;;;;;;12.57;6.60;;;10.80;57.00;;;8.62;63.60;95889.53;5001623;28;20573;-65
2022/04/12 06:55:04;;;;;;;9.43;6.00;;;11.00;56.30;;;8.82;64.01;95890.56;4999071;28;20055;-65
2022/04/12 06:57:34;;;;;;;8.77;5.65;;;11.20;56.00;;;9.01;62.92;95883.94;5016304;28;20055;-66
2022/04/12 07:00:00;;;;;;;7.78;5.80;;;11.40;55.30;;;9.15;62.29;95881.28;5007963;28;20037;-66
2022/04/12 07:02:26;;;;;;;8.02;5.65;;;11.60;54.10;;;9.28;62.47;95887.66;5007604;28;20097;-66
2022/04/12 07:04:52;;;;;;;8.90;5.43;;;11.70;53.80;;;9.41;61.16;95883.38;5019023;28;20041;-66
2022/04/12 07:07:18;;;;;;;9.98;5.50;;;11.90;52.50;;;9.57;60.85;95886.75;5004011;28;20111;-66
2022/04/12 07:09:43;;;;;;;6.57;4.88;;;12.20;52.80;;;9.76;60.56;95892.19;5045564;28;20041;-66
2022/04/12 07:12:09;;;;;;;9.05;5.72;;;12.60;52.10;;;9.91;60.04;95891.28;5029196;28;20397;-66
2022/04/12 07:14:35;;;;;;;6.93;5.18;;;12.60;51.10;;;10.03;59.80;95890.59;5005485;28;20473;-66
2022/04/12 07:17:01;;;;;;;6.55;4.82;;;12.80;50.30;;;10.21;59.53;95889.34;5003961;28;20063;-66
2022/04/12 07:19:26;;;;;;;6.55;4.63;;;13.10;50.20;;;10.37;59.21;95897.72;4996572;28;20037;-66
2022/04/12 07:21:53;;;;;;;6.35;4.78;;;13.20;49.60;;;10.51;59.26;95895.19;4986803;28;20030;-66
2022/04/12 07:24:19;;;;;;;8.57;4.43;;;13.40;48.70;;;10.69;58.60;95898.16;5013473;28;20049;-66
2022/04/12 07:26:44;;;;;;;7.03;4.40;;;13.70;48.80;;;10.95;58.32;95906.16;4983374;28;20243;-66
2022/04/12 07:29:10;;;;;;;7.95;4.60;;;14.10;47.80;;;11.15;57.65;95906.25;5024932;28;20072;-66
2022/04/12 07:31:36;;;;;;;8.18;4.53;;;14.30;46.80;;;11.43;57.42;95903.50;5008419;28;20107;-66
2022/04/12 07:34:02;;;;;;;8.88;4.70;;;14.70;46.50;;;11.72;57.53;95906.78;5008173;28;20183;-66
2022/04/12 07:36:28;;;;;;;6.32;4.43;;;15.10;45.80;;;11.96;56.48;95904.41;4968357;28;20037;-66
2022/04/12 07:38:54;;;;;;;5.20;4.05;;;15.40;45.20;;;12.22;56.24;95903.63;4995644;28;20028;-66
2022/04/12 07:41:19;;;;;;;11.15;4.60;;;15.70;44.60;;;12.51;55.98;95910.28;4995599;28;20045;-66
2022/04/12 07:43:46;;;;;;;12.43;4.47;;;16.10;43.70;;;12.82;55.37;95904.31;5010212;28;20262;-66
2022/04/12 07:46:12;;;;;;;5.50;3.58;;;16.40;43.30;;;13.14;54.86;95899.16;4983180;28;20252;-65
2022/04/12 07:48:39;;;;;;;6.57;3.75;;;16.70;42.10;;;13.38;54.35;95892.38;5011426;28;20025;-67
2022/04/12 07:51:05;;;;;;;6.65;3.80;;;16.80;42.20;;;13.71;54.79;95886.88;5011418;28;20055;-66
2022/04/12 07:53:31;;;;;;;6.25;4.10;;;17.20;42.00;;;14.03;54.36;95898.22;5006400;28;20061;-67
2022/04/12 07:55:57;;;;;;;5.30;4.10;;;17.60;40.90;;;14.30;52.79;95891.72;4978850;28;20064;-64
2022/04/12 07:58:22;;;;;;;9.57;3.83;;;17.70;40.00;;;14.63;51.37;95890.63;4959389;28;20606;-66
2022/04/12 08:00:48;;;;;;;6.20;3.55;;;18.10;39.60;;;14.91;51.40;95890.09;4974881;28;20191;-65
2022/04/12 08:03:14;;;;;;;5.15;3.70;;;18.10;38.80;;;15.10;50.52;95886.44;4978960;28;20034;-65
2022/04/12 08:05:40;;;;;;;6.30;3.60;;;18.20;38.30;;;15.33;50.03;95878.59;5002115;28;20401;-65
2022/04/12 08:08:06;;;;;;;5.22;3.72;;;18.40;39.00;;;15.72;50.22;95873.81;4995231;28;20043;-67
2022/04/12 08:10:31;;;;;;;6.32;3.45;;;18.90;38.90;;;16.10;49.41;95873.44;5010682;28;20029;-65
2022/04/12 08:12:57;;;;;;;9.75;3.80;;;19.20;38.10;;;16.46;48.08;95867.09;4993875;28;20091;-66
2022/04/12 08:15:23;;;;;;;5.18;3.70;;;19.50;37.80;;;16.76;46.91;95863.56;5001847;28;20048;-65
2022/04/12 08:17:49;;;;;;;6.38;3.60;;;19.70;36.80;;;17.13;46.63;95856.06;5027466;28;20033;-65
2022/04/12 08:20:15;;;;;;;5.65;3.88;;;20.10;36.70;;;17.38;45.57;95855.75;5009625;28;20125;-66
2022/04/12 08:22:41;;;;;;;6.18;3.75;;;20.20;36.60;;;17.67;45.29;95853.91;5018671;28;20022;-65
2022/04/12 08:25:08;;;;;;;7.38;4.10;;;20.60;36.20;;;17.89;45.05;95862.03;5013199;28;20025;-65
2022/04/12 08:27:33;;;;;;;7.40;3.88;;;20.60;35.50;;;18.17;43.90;95856.63;4999668;28;20026;-65
2022/04/12 08:29:59;;;;;;;7.43;4.03;;;21.00;35.70;;;18.42;43.08;95850.88;5006458;28;20544;-65
2022/04/12 08:32:25;;;;;;;5.18;3.75;;;21.20;34.60;;;18.55;42.41;95845.19;5005148;28;20069;-65
2022/04/12 08:34:51;;;;;;;5.75;4.20;;;21.30;34.40;;;18.71;42.58;95843.59;5032786;28;20041;-65
2022/04/12 08:37:17;;;;;;;6.50;3.80;;;21.50;34.40;;;18.87;42.58;95842.75;5008672;28;20520;-65
2022/04/12 08:39:42;;;;;;;4.40;3.40;;;21.60;33.90;;;19.00;40.89;95846.06;5026538;28;20300;-65
2022/04/12 08:42:08;;;;;;;5.63;4.07;;;21.70;32.80;;;19.22;40.74;95845.03;5014663;28;20473;-65
2022/04/12 08:44:36;;;;;;;12.60;6.43;;;22.10;32.90;;;19.42;41.11;95844.44;5034582;28;20743;-65
2022/04/12 08:47:04;;;;;;;7.50;5.50;;;22.20;33.00;;;19.56;40.62;95844.91;4995612;28;20076;-65
2022/04/12 08:49:30;;;;;;;6.72;4.70;;;22.30;32.40;;;19.74;40.33;95841.06;5027373;28;20041;-65
2022/04/12 08:51:55;;;;;;;8.70;7.47;;;22.70;32.60;;;19.93;39.39;95839.66;5016318;28;20425;-65
2022/04/12 08:54:21;;;;;;;7.32;3.78;;;22.80;31.80;;;20.08;38.64;95831.75;5000108;28;20029;-65
2022/04/12 08:56:51;;;;;;;3.90;3.35;;;23.00;31.80;;;20.19;38.56;95833.47;5025176;28;20567;-65
2022/04/12 08:59:17;;;;;;;4.17;3.20;;;23.00;32.00;;;20.28;38.26;95836.44;4974833;28;20543;-65
2022/04/12 09:01:43;;;;;;;4.28;3.03;;;23.10;32.20;;;20.48;39.05;95843.81;4998473;28;20030;-65
2022/04/12 09:04:12;;;;;;;4.05;3.08;;;23.50;32.40;;;20.58;39.18;95845.75;5006679;28;20056;-65
2022/04/12 09:06:51;;;;;;;6.28;2.72;;;23.50;32.40;;;20.76;37.13;95842.66;5026032;28;20435;-65
2022/04/12 09:09:19;;;;;;;4.63;3.33;;;23.80;31.80;;;20.90;38.73;95837.66;5010598;28;20029;-65
2022/04/12 09:12:15;;;;;;;4.10;2.95;;;23.80;30.80;;;21.02;36.67;95833.69;4998249;28;20132;-65
2022/04/12 09:14:42;;;;;;;3.90;3.05;;;24.00;31.20;;;21.17;37.72;95838.31;4969654;28;20036;-65
2022/04/12 09:17:11;;;;;;;6.75;3.80;;;24.20;30.60;;;21.37;37.89;95832.25;5010181;28;20040;-65
2022/04/12 09:19:48;;;;;;;6.53;4.00;;;24.50;30.10;;;21.43;35.72;95833.88;4994211;28;20063;-65
2022/04/12 09:22:17;;;;;;;6.53;3.17;;;24.30;30.30;;;21.60;37.11;95828.28;5011451;28;20614;-65
2022/04/12 09:24:54;;;;;;;4.10;2.60;;;24.60;31.30;;;21.82;35.45;95823.50;5012381;28;20120;-65
2022/04/12 09:27:22;;;;;;;5.15;3.50;;;25.00;30.10;;;22.01;36.59;95827.28;4998713;28;20095;-65
2022/04/12 09:29:52;;;;;;;6.38;4.03;;;25.20;29.30;;;22.17;35.41;95827.28;5023210;28;20042;-65
2022/04/12 09:32:29;;;;;;;4.05;3.10;;;25.40;29.40;;;22.36;35.19;95822.97;4999071;28;20033;-65
2022/04/12 09:34:56;;;;;;;5.78;3.03;;;25.60;29.10;;;22.61;36.21;95819.44;5009011;28;20037;-65
2022/04/12 09:37:26;;;;;;;4.07;3.00;;;26.00;29.00;;;22.80;34.95;95817.81;5009754;28;20210;-65
2022/04/12 09:40:01;;;;;;;4.95;3.08;;;26.30;28.50;;;23.02;33.88;95825.53;5043156;28;20123;-65
2022/04/12 09:42:55;;;;;;;7.07;2.65;;;26.40;27.50;;;23.08;33.00;95816.38;5015295;28;20040;-65
2022/04/12 09:45:26;;;;;;;6.55;3.13;;;26.40;27.20;;;23.16;34.07;95815.84;5006670;28;20033;-65
2022/04/12 09:47:54;;;;;;;5.95;3.00;;;26.70;27.70;;;23.37;34.66;95818.41;5026156;28;20080;-64
2022/04/12 09:50:24;;;;;;;5.90;3.10;;;26.80;27.10;;;23.44;34.10;95810.84;5023417;28;20117;-64
2022/04/12 09:52:58;;;;;;;4.45;2.88;;;26.90;26.80;;;23.61;32.46;95797.91;5017246;28;20039;-65
2022/04/12 09:55:46;;;;;;;6.05;3.10;;;27.30;26.60;;;23.79;32.02;95786.50;5019564;28;20034;-65
2022/04/12 09:58:18;;;;;;;5.22;3.10;;;27.60;26.30;;;23.91;32.31;95788.00;4991922;28;20037;-65
2022/04/12 10:00:47;;;;;;;4.38;2.80;;;27.70;26.50;;;24.11;33.16;95785.16;4981652;28;20033;-66
2022/04/12 10:03:15;;;;;;;5.72;2.70;;;28.10;26.00;;;24.20;33.06;95786.16;5017353;28;20509;-65
2022/04/12 10:05:42;;;;;;;3.97;2.60;;;28.20;26.00;;;24.27;33.21;95773.19;4992621;28;20363;-65
2022/04/12 10:08:14;;;;;;;7.13;3.38;;;28.20;25.00;;;24.45;32.91;95768.22;5025456;28;20040;-65
2022/04/12 10:10:43;;;;;;;3.90;2.50;;;28.60;25.20;;;24.69;32.07;95769.03;4992444;28;20028;-65
2022/04/12 10:13:09;;;;;;;3.90;2.17;;;28.90;25.00;;;25.00;32.18;95758.75;5001339;28;20476;-65
2022/04/12 10:15:36;;;;;;;3.28;2.40;;;29.40;24.60;;;25.18;32.06;95765.25;5008631;28;20091;-65
2022/04/12 10:18:02;;;;;;;4.75;3.08;;;29.40;23.70;;;25.31;31.50;95757.22;4992584;28;20033;-65
2022/04/12 10:20:27;;;;;;;4.35;2.50;;;29.70;23.60;;;25.39;31.23;95753.09;5001923;28;20049;-66
2022/04/12 10:22:54;;;;;;;4.55;2.70;;;29.70;24.40;;;25.57;31.10;95755.00;5001161;28;20029;-66